Time;durP1;ratioP1;P1;durP2;ratioP2;P2;SDS_P1;SDS_P2;PMS_P1;PMS_P2;Temp;Humidity;BMP_temperature;BMP_pressure;BME280_temperature;BME280_humidity;BME280_pressure;Samples;Min_cycle;Max_cycle;Signal;HPM_P1;HPM_P2
2023/05/01 00:02:10;;;;;;;1.45;1.30;;;;;;;;;;5117835;27;20053;-79
2023/05/01 00:04:35;;;;;;;2.42;1.35;;;;;;;;;;5117566;27;20039;-79
2023/05/01 00:07:01;;;;;;;1.20;1.10;;;;;;;;;;5118032;27;20023;-80
2023/05/01 00:09:27;;;;;;;1.73;1.30;;;;;;;;;;5134977;27;20466;-79
2023/05/01 00:11:53;;;;;;;1.48;1.10;;;;;;;;;;5118001;27;20442;-79
2023/05/01 00:14:18;;;;;;;2.00;1.23;;;;;;;;;;5116257;27;20121;-79
2023/05/01 00:16:45;;;;;;;1.52;1.42;;;;;;;;;;5136336;27;20027;-79
2023/05/01 00:19:11;;;;;;;2.13;1.38;;;;;;;;;;5135974;27;20049;-79
2023/05/01 00:21:36;;;;;;;1.55;1.23;;;;;;;;;;5100168;27;20038;-79
2023/05/01 00:24:02;;;;;;;2.63;1.60;;;;;;;;;;5134722;27;20177;-80
2023/05/01 00:26:30;;;;;;;4.05;1.40;;;;;;;;;;5117579;27;20084;-77
2023/05/01 00:28:56;;;;;;;2.33;1.40;;;;;;;;;;5117942;27;20114;-80
2023/05/01 00:31:23;;;;;;;2.10;1.50;;;;;;;;;;5136039;27;20054;-80
2023/05/01 00:33:48;;;;;;;1.95;1.40;;;;;;;;;;5135624;27;20023;-80
2023/05/01 00:36:14;;;;;;;1.55;1.45;;;;;;;;;;5117051;27;20531;-79
2023/05/01 00:38:39;;;;;;;2.75;1.42;;;;;;;;;;5117011;27;20028;-79
2023/05/01 00:41:05;;;;;;;3.38;1.35;;;;;;;;;;5134885;27;20106;-79
2023/05/01 00:43:31;;;;;;;3.30;1.55;;;;;;;;;;5100411;27;20031;-79
2023/05/01 00:45:56;;;;;;;2.97;1.30;;;;;;;;;;5135096;27;20023;-79
2023/05/01 00:48:22;;;;;;;2.03;1.40;;;;;;;;;;5134158;27;20123;-79
2023/05/01 00:50:48;;;;;;;2.67;1.52;;;;;;;;;;5133866;27;20027;-79
2023/05/01 00:53:13;;;;;;;1.83;1.23;;;;;;;;;;5133945;27;20031;-80
2023/05/01 00:55:40;;;;;;;1.85;1.58;;;;;;;;;;5116729;27;20079;-79
2023/05/01 00:58:06;;;;;;;1.73;1.42;;;;;;;;;;5134390;27;20023;-79
2023/05/01 01:00:31;;;;;;;1.33;1.10;;;;;;;;;;5116552;27;20041;-79
2023/05/01 01:02:57;;;;;;;1.48;1.10;;;;;;;;;;5135254;27;20046;-82
2023/05/01 01:05:25;;;;;;;3.13;1.35;;;;;;;;;;5133543;27;20027;-80
2023/05/01 01:07:55;;;;;;;1.25;1.15;;;;;;;;;;5133108;27;20023;-80
2023/05/01 01:10:36;;;;;;;1.15;1.08;;;;;;;;;;5133303;27;20019;-80
2023/05/01 01:13:08;;;;;;;2.10;1.10;;;;;;;;;;5133211;27;20482;-80
2023/05/01 01:15:44;;;;;;;3.30;1.17;;;;;;;;;;5133371;27;20035;-81
2023/05/01 01:18:22;;;;;;;1.23;1.13;;;;;;;;;;5116131;27;20530;-80
2023/05/01 01:21:10;;;;;;;1.15;1.05;;;;;;;;;;5134237;27;20082;-80
2023/05/01 01:24:03;;;;;;;1.63;1.40;;;;;;;;;;5134211;27;20027;-80
2023/05/01 01:26:51;;;;;;;1.30;1.20;;;;;;;;;;5133307;27;20023;-80
2023/05/01 01:29:30;;;;;;;2.95;1.27;;;;;;;;;;5133155;27;20030;-80
2023/05/01 01:32:10;;;;;;;2.50;1.40;;;;;;;;;;5133591;27;20046;-80
2023/05/01 01:34:48;;;;;;;1.58;1.23;;;;;;;;;;5133277;27;20019;-80
2023/05/01 01:37:21;;;;;;;5.30;1.23;;;;;;;;;;5116079;27;20045;-80
2023/05/01 01:39:55;;;;;;;1.60;1.35;;;;;;;;;;5115879;27;20080;-80
2023/05/01 01:42:25;;;;;;;1.52;1.30;;;;;;;;;;5133287;27;20023;-80
2023/05/01 01:44:53;;;;;;;1.27;1.17;;;;;;;;;;5133357;27;20095;-80
2023/05/01 01:47:21;;;;;;;1.35;1.25;;;;;;;;;;5115813;28;20024;-80
2023/05/01 01:49:51;;;;;;;2.30;1.20;;;;;;;;;;5133036;28;20146;-80
2023/05/01 01:52:17;;;;;;;2.75;1.20;;;;;;;;;;5134218;27;20438;-81
2023/05/01 01:54:48;;;;;;;1.88;1.10;;;;;;;;;;5133089;28;20130;-80
2023/05/01 01:57:16;;;;;;;1.48;1.20;;;;;;;;;;5115917;28;20026;-81
2023/05/01 01:59:43;;;;;;;1.30;1.10;;;;;;;;;;5115755;28;20118;-79
2023/05/01 02:02:09;;;;;;;2.55;1.30;;;;;;;;;;5132907;28;20426;-80
2023/05/01 02:04:35;;;;;;;2.65;1.30;;;;;;;;;;5132973;28;20068;-80
2023/05/01 02:07:02;;;;;;;1.40;1.30;;;;;;;;;;5115791;28;20027;-81
2023/05/01 02:09:29;;;;;;;1.85;1.58;;;;;;;;;;5134270;27;20034;-81
2023/05/01 02:11:55;;;;;;;1.98;1.30;;;;;;;;;;5133219;28;20367;-80
2023/05/01 02:14:22;;;;;;;1.35;1.10;;;;;;;;;;5115834;28;20030;-80
2023/05/01 02:16:48;;;;;;;1.20;1.10;;;;;;;;;;5132914;28;20037;-80
2023/05/01 02:19:14;;;;;;;1.40;1.10;;;;;;;;;;5133176;28;20053;-81
2023/05/01 02:21:40;;;;;;;1.63;1.30;;;;;;;;;;5132875;28;20541;-80
2023/05/01 02:24:06;;;;;;;5.10;1.27;;;;;;;;;;5116283;28;20050;-81
2023/05/01 02:26:37;;;;;;;1.92;1.33;;;;;;;;;;5132784;28;20027;-81
2023/05/01 02:29:06;;;;;;;1.48;1.20;;;;;;;;;;5132616;28;20027;-80
2023/05/01 02:31:31;;;;;;;1.90;1.60;;;;;;;;;;5132762;28;20522;-81
2023/05/01 02:33:57;;;;;;;1.30;1.17;;;;;;;;;;5133172;28;20126;-81
2023/05/01 02:36:22;;;;;;;1.90;1.30;;;;;;;;;;5134794;27;20386;-80
2023/05/01 02:38:49;;;;;;;1.38;1.27;;;;;;;;;;5137778;27;20019;-81
2023/05/01 02:41:15;;;;;;;2.58;1.63;;;;;;;;;;5138121;27;20050;-80
2023/05/01 02:43:41;;;;;;;2.47;1.30;;;;;;;;;;5119233;27;20488;-80
2023/05/01 02:46:09;;;;;;;3.20;1.20;;;;;;;;;;5119288;27;20538;-80
2023/05/01 02:48:37;;;;;;;1.70;1.00;;;;;;;;;;5136338;27;20023;-80
2023/05/01 02:51:02;;;;;;;1.55;1.30;;;;;;;;;;5136582;27;20034;-80
2023/05/01 02:53:29;;;;;;;1.58;1.10;;;;;;;;;;5137485;27;20114;-80
2023/05/01 02:55:55;;;;;;;1.55;1.20;;;;;;;;;;5136674;27;20072;-80
2023/05/01 02:58:21;;;;;;;1.33;1.20;;;;;;;;;;5138957;27;20043;-80
2023/05/01 03:00:48;;;;;;;1.42;1.20;;;;;;;;;;5136491;27;20031;-80
2023/05/01 03:03:14;;;;;;;5.47;1.45;;;;;;;;;;5137969;27;20026;-80
2023/05/01 03:05:40;;;;;;;7.65;1.50;;;;;;;;;;5138443;27;20111;-80
2023/05/01 03:08:06;;;;;;;2.10;1.40;;;;;;;;;;5138180;27;20114;-80
2023/05/01 03:10:31;;;;;;;5.20;1.35;;;;;;;;;;5136315;27;20035;-80
2023/05/01 03:12:56;;;;;;;1.42;1.20;;;;;;;;;;5138358;27;20079;-80
2023/05/01 03:15:22;;;;;;;3.25;1.50;;;;;;;;;;5136728;27;20034;-79
2023/05/01 03:17:47;;;;;;;1.52;1.27;;;;;;;;;;5136991;27;20035;-80
2023/05/01 03:20:13;;;;;;;1.25;1.10;;;;;;;;;;5135724;27;20027;-80
2023/05/01 03:22:38;;;;;;;1.20;1.10;;;;;;;;;;5135875;27;20035;-80
2023/05/01 03:25:04;;;;;;;2.97;1.20;;;;;;;;;;5137259;27;20023;-80
2023/05/01 03:27:29;;;;;;;2.05;1.17;;;;;;;;;;5137007;27;20023;-80
2023/05/01 03:29:55;;;;;;;2.08;1.35;;;;;;;;;;5136808;27;20019;-80
2023/05/01 03:32:21;;;;;;;2.35;1.67;;;;;;;;;;5135579;27;20119;-79
2023/05/01 03:34:47;;;;;;;2.47;1.40;;;;;;;;;;5135528;27;20215;-80
2023/05/01 03:37:12;;;;;;;1.30;1.20;;;;;;;;;;5118183;27;20027;-80
2023/05/01 03:39:37;;;;;;;1.52;1.42;;;;;;;;;;5136619;27;20056;-80
2023/05/01 03:42:04;;;;;;;1.65;1.17;;;;;;;;;;5137316;27;20481;-80
2023/05/01 03:44:29;;;;;;;2.92;1.35;;;;;;;;;;5135384;27;20031;-80
2023/05/01 03:46:54;;;;;;;1.42;1.23;;;;;;;;;;5136654;27;20035;-80
2023/05/01 03:49:20;;;;;;;1.90;1.50;;;;;;;;;;5118387;27;20034;-80
2023/05/01 03:51:45;;;;;;;2.05;1.35;;;;;;;;;;5118663;27;20445;-80
2023/05/01 03:54:11;;;;;;;1.27;1.17;;;;;;;;;;5121071;27;20389;-81
2023/05/01 03:56:37;;;;;;;2.40;1.50;;;;;;;;;;5138731;27;20034;-80
2023/05/01 03:59:02;;;;;;;3.03;1.40;;;;;;;;;;5120124;27;20019;-80
2023/05/01 04:01:28;;;;;;;1.38;1.25;;;;;;;;;;5123097;27;20437;-80
2023/05/01 04:03:53;;;;;;;1.40;1.30;;;;;;;;;;5122885;27;20350;-80
2023/05/01 04:06:19;;;;;;;1.55;1.30;;;;;;;;;;5123002;27;20038;-80
2023/05/01 04:08:44;;;;;;;2.50;1.65;;;;;;;;;;5123506;27;20058;-80
2023/05/01 04:11:10;;;;;;;1.88;1.50;;;;;;;;;;5135453;27;20031;-79
2023/05/01 04:13:35;;;;;;;1.25;1.15;;;;;;;;;;5138232;27;20023;-79
2023/05/01 04:16:01;;;;;;;2.90;1.60;;;;;;;;;;5139887;27;20050;-80
2023/05/01 04:18:26;;;;;;;2.85;1.40;;;;;;;;;;5136892;27;20019;-80
2023/05/01 04:20:51;;;;;;;1.75;1.23;;;;;;;;;;5136640;27;20374;-80
2023/05/01 04:23:17;;;;;;;2.95;1.77;;;;;;;;;;5136052;27;20046;-80
2023/05/01 04:25:42;;;;;;;3.00;1.60;;;;;;;;;;5117743;27;20494;-80
2023/05/01 04:28:10;;;;;;;1.55;1.40;;;;;;;;;;5135734;27;20477;-80
2023/05/01 04:30:35;;;;;;;2.95;1.50;;;;;;;;;;5135937;27;20034;-80
2023/05/01 04:33:01;;;;;;;3.28;1.45;;;;;;;;;;5117330;27;20027;-80
2023/05/01 04:35:26;;;;;;;2.50;1.40;;;;;;;;;;5117089;27;20027;-80
2023/05/01 04:37:52;;;;;;;2.20;1.52;;;;;;;;;;5117429;27;20056;-80
2023/05/01 04:40:17;;;;;;;2.30;1.50;;;;;;;;;;5135560;27;20477;-80
2023/05/01 04:42:43;;;;;;;2.97;1.70;;;;;;;;;;5117250;27;20088;-80
2023/05/01 04:45:09;;;;;;;2.35;1.63;;;;;;;;;;5116846;27;20477;-79
2023/05/01 04:47:34;;;;;;;2.80;1.67;;;;;;;;;;5135413;27;20042;-81
2023/05/01 04:50:00;;;;;;;1.90;1.27;;;;;;;;;;5082781;27;20151;-80
2023/05/01 04:52:25;;;;;;;2.97;1.75;;;;;;;;;;5116940;27;20038;-79
2023/05/01 04:54:50;;;;;;;2.17;1.48;;;;;;;;;;5134967;27;20184;-79
2023/05/01 04:57:16;;;;;;;5.28;2.10;;;;;;;;;;5116668;27;20502;-79
2023/05/01 04:59:42;;;;;;;26.15;6.75;;;;;;;;;;5116135;27;20027;-80
2023/05/01 05:02:07;;;;;;;47.90;12.43;;;;;;;;;;5116567;27;20469;-82
2023/05/01 05:04:33;;;;;;;29.65;8.70;;;;;;;;;;5117228;27;20031;-80
2023/05/01 05:06:58;;;;;;;39.75;8.95;;;;;;;;;;5117162;27;20031;-81
2023/05/01 05:09:24;;;;;;;35.70;9.52;;;;;;;;;;5116957;27;20034;-81
2023/05/01 05:11:49;;;;;;;30.27;7.03;;;;;;;;;;5116985;27;20041;-81
2023/05/01 05:14:14;;;;;;;32.17;8.38;;;;;;;;;;5134926;27;20027;-80
2023/05/01 05:16:40;;;;;;;25.67;7.63;;;;;;;;;;5100554;27;20027;-79
2023/05/01 05:19:06;;;;;;;22.98;6.50;;;;;;;;;;5136806;27;20047;-79
2023/05/01 05:21:31;;;;;;;21.13;5.70;;;;;;;;;;5117167;27;20120;-79
2023/05/01 05:23:58;;;;;;;20.55;5.95;;;;;;;;;;5117477;27;20057;-79
2023/05/01 05:26:23;;;;;;;15.95;4.95;;;;;;;;;;5118398;27;20027;-79
2023/05/01 05:28:50;;;;;;;20.67;5.40;;;;;;;;;;5135206;27;20031;-79
2023/05/01 05:31:16;;;;;;;12.30;4.63;;;;;;;;;;5116532;27;20030;-79
2023/05/01 05:33:41;;;;;;;13.65;4.32;;;;;;;;;;5134899;27;20023;-79
2023/05/01 05:36:07;;;;;;;13.20;4.32;;;;;;;;;;5134900;27;20031;-79
2023/05/01 05:38:32;;;;;;;10.70;3.88;;;;;;;;;;5134624;27;20023;-79
2023/05/01 05:40:58;;;;;;;10.70;3.67;;;;;;;;;;5134685;27;20041;-79
2023/05/01 05:43:23;;;;;;;8.32;3.28;;;;;;;;;;5134779;27;20426;-80
2023/05/01 05:45:49;;;;;;;13.75;3.85;;;;;;;;;;5116732;27;20097;-79
2023/05/01 05:48:14;;;;;;;9.35;3.58;;;;;;;;;;5133280;27;20023;-79
2023/05/01 05:50:40;;;;;;;10.45;3.15;;;;;;;;;;5132474;27;20035;-79
2023/05/01 05:53:05;;;;;;;18.75;2.95;;;;;;;;;;5132564;28;20077;-79
2023/05/01 05:55:30;;;;;;;9.82;3.00;;;;;;;;;;5115020;28;20050;-78
2023/05/01 05:57:56;;;;;;;14.95;2.85;;;;;;;;;;5134121;28;20027;-81
2023/05/01 06:00:22;;;;;;;8.88;2.95;;;;;;;;;;5132917;28;20509;-80
2023/05/01 06:02:47;;;;;;;6.68;2.42;;;;;;;;;;5099000;28;20074;-81
2023/05/01 06:05:12;;;;;;;7.07;2.08;;;;;;;;;;5133737;28;20095;-80
2023/05/01 06:07:38;;;;;;;6.32;2.10;;;;;;;;;;5134078;28;20038;-84
2023/05/01 06:10:04;;;;;;;5.53;2.13;;;;;;;;;;5099055;27;20466;-80
2023/05/01 06:12:30;;;;;;;5.15;2.28;;;;;;;;;;5086117;27;20031;-80
2023/05/01 06:14:59;;;;;;;3.88;2.00;;;;;;;;;;5119633;27;20045;-81
2023/05/01 06:17:25;;;;;;;2.55;1.60;;;;;;;;;;5119945;27;20366;-81
2023/05/01 06:19:52;;;;;;;3.20;2.05;;;;;;;;;;5138203;27;20038;-83
2023/05/01 06:22:18;;;;;;;4.57;1.95;;;;;;;;;;5138265;27;20394;-82
2023/05/01 06:24:44;;;;;;;3.03;1.73;;;;;;;;;;5119862;27;20026;-82
2023/05/01 06:27:10;;;;;;;6.15;1.70;;;;;;;;;;5102610;27;20100;-81
2023/05/01 06:29:35;;;;;;;2.42;1.75;;;;;;;;;;5085584;27;20517;-82
2023/05/01 06:32:01;;;;;;;7.07;1.90;;;;;;;;;;5121515;27;20130;-84
2023/05/01 06:34:26;;;;;;;5.18;1.92;;;;;;;;;;5119640;27;20023;-83
2023/05/01 06:36:52;;;;;;;9.13;2.08;;;;;;;;;;5119193;27;20027;-82
2023/05/01 06:39:17;;;;;;;4.85;1.95;;;;;;;;;;5119011;27;20031;-81
2023/05/01 06:41:46;;;;;;;4.70;2.00;;;;;;;;;;5137298;27;20080;-81
2023/05/01 06:44:11;;;;;;;8.10;2.30;;;;;;;;;;5102243;27;20019;-80
2023/05/01 06:46:37;;;;;;;4.65;1.75;;;;;;;;;;5137207;27;20076;-82
2023/05/01 06:49:02;;;;;;;3.15;1.60;;;;;;;;;;5136033;27;20398;-83
2023/05/01 06:51:29;;;;;;;3.58;1.60;;;;;;;;;;5135980;27;20151;-81
2023/05/01 06:53:54;;;;;;;4.70;1.90;;;;;;;;;;5119472;27;20030;-81
2023/05/01 06:56:20;;;;;;;3.33;1.75;;;;;;;;;;5098169;28;20055;-82
2023/05/01 06:58:46;;;;;;;5.00;2.05;;;;;;;;;;5115592;28;20520;-80
2023/05/01 07:01:11;;;;;;;2.10;1.55;;;;;;;;;;5107318;27;20478;-80
2023/05/01 07:03:36;;;;;;;3.90;1.80;;;;;;;;;;5118666;27;20065;-81
2023/05/01 07:06:02;;;;;;;2.70;1.67;;;;;;;;;;5118682;27;20035;-81
2023/05/01 07:08:27;;;;;;;7.95;1.50;;;;;;;;;;5101548;27;20031;-81
2023/05/01 07:10:53;;;;;;;3.35;1.77;;;;;;;;;;5118699;27;20048;-82
2023/05/01 07:13:18;;;;;;;5.75;1.83;;;;;;;;;;5137596;27;20060;-83
2023/05/01 07:15:44;;;;;;;3.05;2.00;;;;;;;;;;5118140;27;20031;-81
2023/05/01 07:18:11;;;;;;;4.40;1.70;;;;;;;;;;5101208;27;20118;-82
2023/05/01 07:20:37;;;;;;;3.20;1.67;;;;;;;;;;5101101;27;20035;-81
2023/05/01 07:23:02;;;;;;;6.63;1.95;;;;;;;;;;5134553;27;20050;-82
2023/05/01 07:25:28;;;;;;;3.22;1.65;;;;;;;;;;5135465;27;20527;-83
2023/05/01 07:27:54;;;;;;;5.13;1.95;;;;;;;;;;5118418;27;20027;-82
2023/05/01 07:30:19;;;;;;;4.18;1.73;;;;;;;;;;5135382;27;20430;-81
2023/05/01 07:32:45;;;;;;;4.57;1.90;;;;;;;;;;5135468;27;20508;-80
2023/05/01 07:35:10;;;;;;;2.72;2.10;;;;;;;;;;5135122;27;20027;-80
2023/05/01 07:37:36;;;;;;;2.38;1.80;;;;;;;;;;5136458;27;20100;-81
2023/05/01 07:40:02;;;;;;;3.28;1.92;;;;;;;;;;5136128;27;20091;-80
2023/05/01 07:42:27;;;;;;;2.85;1.90;;;;;;;;;;5135199;27;20466;-80
2023/05/01 07:44:52;;;;;;;3.33;1.80;;;;;;;;;;5134992;27;20027;-80
2023/05/01 07:47:18;;;;;;;4.72;1.90;;;;;;;;;;5117295;27;20035;-83
2023/05/01 07:49:43;;;;;;;5.78;1.65;;;;;;;;;;5134670;27;20450;-83
2023/05/01 07:52:09;;;;;;;4.80;2.10;;;;;;;;;;5134040;27;20153;-82
2023/05/01 07:54:35;;;;;;;5.13;2.10;;;;;;;;;;5134874;27;20431;-82
2023/05/01 07:57:00;;;;;;;3.33;1.55;;;;;;;;;;5153672;27;20047;-82
2023/05/01 07:59:27;;;;;;;2.20;1.60;;;;;;;;;;5104147;27;20029;-83
2023/05/01 08:01:52;;;;;;;5.65;1.70;;;;;;;;;;5121269;27;20481;-81
2023/05/01 08:04:17;;;;;;;4.75;1.80;;;;;;;;;;5138160;27;20030;-81
2023/05/01 08:06:43;;;;;;;2.75;1.88;;;;;;;;;;5156839;27;20026;-82
2023/05/01 08:09:09;;;;;;;2.92;1.63;;;;;;;;;;5120644;27;20137;-82
2023/05/01 08:11:34;;;;;;;2.47;1.77;;;;;;;;;;5121006;27;20109;-82
2023/05/01 08:13:59;;;;;;;3.33;1.58;;;;;;;;;;5138065;27;20030;-81
2023/05/01 08:16:25;;;;;;;2.80;1.65;;;;;;;;;;5156387;27;20026;-81
2023/05/01 08:18:50;;;;;;;2.30;1.60;;;;;;;;;;5120958;27;20392;-81
2023/05/01 08:21:16;;;;;;;2.50;1.95;;;;;;;;;;5120691;27;20049;-81
2023/05/01 08:23:41;;;;;;;2.38;1.80;;;;;;;;;;5156630;27;20380;-82
2023/05/01 08:26:07;;;;;;;2.70;2.00;;;;;;;;;;5137371;27;20392;-81
2023/05/01 08:28:34;;;;;;;2.78;1.70;;;;;;;;;;5137521;27;20401;-81
2023/05/01 08:31:00;;;;;;;2.13;1.75;;;;;;;;;;5137627;27;20559;-81
2023/05/01 08:33:25;;;;;;;3.25;1.88;;;;;;;;;;5120161;27;20121;-80
2023/05/01 08:35:51;;;;;;;1.88;1.70;;;;;;;;;;5155446;27;20031;-86
2023/05/01 08:38:17;;;;;;;4.70;1.98;;;;;;;;;;5137970;27;20038;-87
2023/05/01 08:40:47;;;;;;;3.30;2.00;;;;;;;;;;5137747;27;20023;-80
2023/05/01 08:43:12;;;;;;;2.95;1.83;;;;;;;;;;5156808;27;20545;-81
2023/05/01 08:45:38;;;;;;;3.97;1.85;;;;;;;;;;5137936;27;20031;-82
2023/05/01 08:48:09;;;;;;;3.40;1.80;;;;;;;;;;5138100;27;20067;-82
2023/05/01 08:50:37;;;;;;;3.33;1.83;;;;;;;;;;5120656;27;20027;-81
2023/05/01 08:53:04;;;;;;;4.93;1.95;;;;;;;;;;5120856;27;20075;-81
2023/05/01 08:55:31;;;;;;;2.65;1.90;;;;;;;;;;5133797;27;20138;-81
2023/05/01 08:57:57;;;;;;;3.92;2.00;;;;;;;;;;5134116;27;20023;-81
2023/05/01 09:00:23;;;;;;;3.45;1.75;;;;;;;;;;5134346;27;20124;-80
2023/05/01 09:02:50;;;;;;;3.53;1.95;;;;;;;;;;5133690;27;20037;-80
2023/05/01 09:05:16;;;;;;;3.10;1.63;;;;;;;;;;5133644;27;20045;-82
2023/05/01 09:07:43;;;;;;;3.47;1.80;;;;;;;;;;5099560;27;20027;-79
2023/05/01 09:10:10;;;;;;;5.85;2.00;;;;;;;;;;5135439;27;20042;-81
2023/05/01 09:12:36;;;;;;;2.55;2.03;;;;;;;;;;5134262;27;20035;-81
2023/05/01 09:15:03;;;;;;;2.33;1.67;;;;;;;;;;5116784;27;20046;-82
2023/05/01 09:17:30;;;;;;;1.90;1.70;;;;;;;;;;5116566;27;20033;-82
2023/05/01 09:19:56;;;;;;;2.80;1.73;;;;;;;;;;5134068;27;20023;-80
2023/05/01 09:22:21;;;;;;;3.97;1.63;;;;;;;;;;5133740;27;20037;-79
2023/05/01 09:24:47;;;;;;;3.20;2.00;;;;;;;;;;5133926;27;20034;-80
2023/05/01 09:27:13;;;;;;;1.85;1.55;;;;;;;;;;5134912;27;20054;-80
2023/05/01 09:29:44;;;;;;;3.67;1.75;;;;;;;;;;5133574;27;20026;-82
2023/05/01 09:32:20;;;;;;;2.22;1.60;;;;;;;;;;5133447;27;20030;-82
2023/05/01 09:34:51;;;;;;;3.35;1.75;;;;;;;;;;5134728;27;20484;-79
2023/05/01 09:37:30;;;;;;;5.03;1.98;;;;;;;;;;5116200;27;20054;-80
2023/05/01 09:40:08;;;;;;;4.30;2.10;;;;;;;;;;5116157;27;20037;-79
2023/05/01 09:42:36;;;;;;;3.22;1.58;;;;;;;;;;5135140;27;20023;-80
2023/05/01 09:45:04;;;;;;;5.78;1.65;;;;;;;;;;5134650;27;20027;-79
2023/05/01 09:47:30;;;;;;;2.55;1.80;;;;;;;;;;5133222;27;20076;-82
2023/05/01 09:49:56;;;;;;;3.08;1.75;;;;;;;;;;5134573;27;20394;-82
2023/05/01 09:52:32;;;;;;;4.82;2.13;;;;;;;;;;5134691;27;20027;-80
2023/05/01 09:55:16;;;;;;;2.08;1.50;;;;;;;;;;5116302;27;20066;-80
2023/05/01 09:57:43;;;;;;;2.65;1.80;;;;;;;;;;5119381;27;20102;-81
2023/05/01 10:00:11;;;;;;;3.35;1.80;;;;;;;;;;5119688;27;20392;-81
2023/05/01 10:02:37;;;;;;;4.30;1.60;;;;;;;;;;5136622;27;20427;-81
2023/05/01 10:05:03;;;;;;;2.42;1.60;;;;;;;;;;5119846;27;20022;-81
2023/05/01 10:07:29;;;;;;;4.28;1.80;;;;;;;;;;5156279;27;20053;-81
2023/05/01 10:09:54;;;;;;;2.00;1.63;;;;;;;;;;5136872;27;20041;-81
2023/05/01 10:12:27;;;;;;;2.97;1.67;;;;;;;;;;5155676;27;20030;-81
2023/05/01 10:14:53;;;;;;;3.05;1.92;;;;;;;;;;5155094;27;20101;-81
2023/05/01 10:17:19;;;;;;;3.10;1.42;;;;;;;;;;5136858;27;20109;-81
2023/05/01 10:19:45;;;;;;;3.58;1.80;;;;;;;;;;5154987;27;20080;-80
2023/05/01 10:22:11;;;;;;;4.00;1.73;;;;;;;;;;5119334;27;20031;-80
2023/05/01 10:24:37;;;;;;;2.70;1.95;;;;;;;;;;5154719;27;20033;-80
2023/05/01 10:27:04;;;;;;;4.55;1.65;;;;;;;;;;5155120;27;20496;-81
2023/05/01 10:29:30;;;;;;;2.13;1.70;;;;;;;;;;5154872;27;20030;-81
2023/05/01 10:31:56;;;;;;;5.20;1.63;;;;;;;;;;5154868;27;20023;-81
2023/05/01 10:34:22;;;;;;;2.42;1.63;;;;;;;;;;5136207;27;20031;-80
2023/05/01 10:36:53;;;;;;;2.92;1.50;;;;;;;;;;5155246;27;20030;-81
2023/05/01 10:39:32;;;;;;;2.60;1.50;;;;;;;;;;5118912;27;20023;-81
2023/05/01 10:41:57;;;;;;;3.45;1.50;;;;;;;;;;5119515;27;20045;-81
2023/05/01 10:44:27;;;;;;;1.70;1.33;;;;;;;;;;5155121;27;20101;-81
2023/05/01 10:46:53;;;;;;;3.95;2.35;;;;;;;;;;5154886;27;20023;-81
2023/05/01 10:49:18;;;;;;;3.17;1.88;;;;;;;;;;5155255;27;20041;-82
2023/05/01 10:51:56;;;;;;;3.47;1.88;;;;;;;;;;5137906;27;20018;-81
2023/05/01 10:54:23;;;;;;;6.00;1.40;;;;;;;;;;5164515;27;20045;-82
2023/05/01 10:56:49;;;;;;;3.53;1.60;;;;;;;;;;5158163;27;20054;-81
2023/05/01 10:59:14;;;;;;;2.63;1.67;;;;;;;;;;5143531;27;20026;-80
2023/05/01 11:01:44;;;;;;;3.10;1.50;;;;;;;;;;5143293;27;20392;-82
2023/05/01 11:04:19;;;;;;;2.50;1.60;;;;;;;;;;5144338;27;20022;-81
2023/05/01 11:07:06;;;;;;;1.83;1.35;;;;;;;;;;5145196;27;20022;-80
2023/05/01 11:09:36;;;;;;;2.55;1.63;;;;;;;;;;5146867;27;20121;-79
2023/05/01 11:12:02;;;;;;;7.30;1.42;;;;;;;;;;5141862;27;20043;-79
2023/05/01 11:14:27;;;;;;;8.82;1.75;;;;;;;;;;5144132;27;20079;-79
2023/05/01 11:16:52;;;;;;;4.30;1.70;;;;;;;;;;5162992;27;20026;-80
2023/05/01 11:19:21;;;;;;;2.22;1.42;;;;;;;;;;5166644;27;20030;-80
2023/05/01 11:21:47;;;;;;;2.25;1.60;;;;;;;;;;5166705;27;20422;-80
2023/05/01 11:24:13;;;;;;;12.52;1.50;;;;;;;;;;5164711;27;20079;-80
2023/05/01 11:26:40;;;;;;;4.13;1.60;;;;;;;;;;5127063;27;20026;-80
2023/05/01 11:29:06;;;;;;;1.90;1.40;;;;;;;;;;5142634;27;20050;-80
2023/05/01 11:31:32;;;;;;;1.95;1.30;;;;;;;;;;5139754;27;20056;-79
2023/05/01 11:33:58;;;;;;;11.48;1.50;;;;;;;;;;5122623;27;20030;-80
2023/05/01 11:36:26;;;;;;;3.58;1.58;;;;;;;;;;5140122;27;20033;-80
2023/05/01 11:38:57;;;;;;;3.67;1.60;;;;;;;;;;5122097;27;20019;-80
2023/05/01 11:41:23;;;;;;;1.98;1.27;;;;;;;;;;5122546;27;20058;-80
2023/05/01 11:43:57;;;;;;;2.72;1.65;;;;;;;;;;5139057;27;20026;-79
2023/05/01 11:46:27;;;;;;;2.67;1.55;;;;;;;;;;5139430;27;20019;-80
2023/05/01 11:48:53;;;;;;;2.22;1.60;;;;;;;;;;5121580;27;20445;-80
2023/05/01 11:51:19;;;;;;;3.25;1.40;;;;;;;;;;5138681;27;20121;-80
2023/05/01 11:54:04;;;;;;;3.95;1.80;;;;;;;;;;5139024;27;20114;-80
2023/05/01 11:56:31;;;;;;;6.40;1.80;;;;;;;;;;5138682;27;20050;-80
2023/05/01 11:58:58;;;;;;;3.25;1.90;;;;;;;;;;5138522;27;20019;-80
2023/05/01 12:01:34;;;;;;;2.83;1.60;;;;;;;;;;5138670;27;20019;-80
2023/05/01 12:04:00;;;;;;;2.75;1.58;;;;;;;;;;5139039;27;20022;-80
2023/05/01 12:06:42;;;;;;;5.03;2.00;;;;;;;;;;5138786;27;20066;-80
2023/05/01 12:09:17;;;;;;;1.88;1.50;;;;;;;;;;5138672;27;20026;-80
2023/05/01 12:11:44;;;;;;;4.25;1.80;;;;;;;;;;5138681;27;20476;-80
2023/05/01 12:14:10;;;;;;;2.58;1.75;;;;;;;;;;5139155;27;20076;-79
2023/05/01 12:16:36;;;;;;;4.75;1.67;;;;;;;;;;5141063;27;20415;-79
2023/05/01 12:19:02;;;;;;;4.18;1.45;;;;;;;;;;5143635;27;20122;-80
2023/05/01 12:21:28;;;;;;;2.25;1.60;;;;;;;;;;5148193;27;20094;-80
2023/05/01 12:23:53;;;;;;;2.70;1.58;;;;;;;;;;5159710;27;20041;-80
2023/05/01 12:26:24;;;;;;;3.75;1.63;;;;;;;;;;5139911;27;20065;-79
2023/05/01 12:29:03;;;;;;;2.63;1.67;;;;;;;;;;5105216;27;20400;-80
2023/05/01 12:31:29;;;;;;;2.88;1.52;;;;;;;;;;5157258;27;20477;-79
2023/05/01 12:33:55;;;;;;;2.13;1.45;;;;;;;;;;5138559;27;20116;-79
2023/05/01 12:36:24;;;;;;;3.03;1.67;;;;;;;;;;5156744;27;20029;-80
2023/05/01 12:39:11;;;;;;;2.50;1.35;;;;;;;;;;5138280;27;20026;-79
2023/05/01 12:41:44;;;;;;;1.75;1.45;;;;;;;;;;5137863;27;20372;-79
2023/05/01 12:44:21;;;;;;;2.75;1.50;;;;;;;;;;5138532;27;20071;-80
2023/05/01 12:46:59;;;;;;;2.60;1.42;;;;;;;;;;5138254;27;20107;-80
2023/05/01 12:49:26;;;;;;;2.13;1.40;;;;;;;;;;5156491;27;20023;-80
2023/05/01 12:51:53;;;;;;;6.05;1.52;;;;;;;;;;5138193;27;20034;-79
2023/05/01 12:54:23;;;;;;;2.15;1.48;;;;;;;;;;5156545;27;20035;-79
2023/05/01 12:56:52;;;;;;;5.88;1.60;;;;;;;;;;5137818;27;20046;-80
2023/05/01 12:59:26;;;;;;;2.10;1.30;;;;;;;;;;5120837;27;20543;-80
2023/05/01 13:01:59;;;;;;;2.28;1.42;;;;;;;;;;5137541;27;20105;-80
2023/05/01 13:04:25;;;;;;;2.38;1.40;;;;;;;;;;5137566;27;20018;-79
2023/05/01 13:06:52;;;;;;;2.30;1.38;;;;;;;;;;5137711;27;20031;-79
2023/05/01 13:09:18;;;;;;;1.83;1.40;;;;;;;;;;5137377;27;20031;-79
2023/05/01 13:11:58;;;;;;;1.73;1.23;;;;;;;;;;5137770;27;20041;-79
2023/05/01 13:14:24;;;;;;;1.85;1.30;;;;;;;;;;5137308;27;20050;-80
2023/05/01 13:16:51;;;;;;;2.08;1.30;;;;;;;;;;5120149;27;20073;-80
2023/05/01 13:19:29;;;;;;;1.50;1.38;;;;;;;;;;5155520;27;20030;-79
2023/05/01 13:21:55;;;;;;;5.05;1.65;;;;;;;;;;5116112;27;20049;-79
2023/05/01 13:24:22;;;;;;;3.45;1.40;;;;;;;;;;5116369;27;20103;-79
2023/05/01 13:26:48;;;;;;;2.20;1.38;;;;;;;;;;5134799;27;20031;-79
2023/05/01 13:29:14;;;;;;;2.80;1.35;;;;;;;;;;5099167;27;20023;-79
2023/05/01 13:31:44;;;;;;;2.33;1.30;;;;;;;;;;5134671;27;20027;-79
2023/05/01 13:34:09;;;;;;;2.22;1.40;;;;;;;;;;5099275;27;20481;-79
2023/05/01 13:36:35;;;;;;;2.45;1.40;;;;;;;;;;5116315;27;20038;-79
2023/05/01 13:39:00;;;;;;;2.75;1.35;;;;;;;;;;5116232;27;20538;-78
2023/05/01 13:41:26;;;;;;;2.50;1.50;;;;;;;;;;5116016;27;20550;-79
2023/05/01 13:43:53;;;;;;;2.70;1.60;;;;;;;;;;5134808;27;20497;-79
2023/05/01 13:46:20;;;;;;;1.42;1.33;;;;;;;;;;5116365;28;20023;-79
2023/05/01 13:48:46;;;;;;;2.97;1.80;;;;;;;;;;5134309;27;20059;-79
2023/05/01 13:51:13;;;;;;;1.90;1.35;;;;;;;;;;5116508;28;20027;-79
2023/05/01 13:53:39;;;;;;;3.05;1.63;;;;;;;;;;5134506;28;20513;-78
2023/05/01 13:56:07;;;;;;;2.67;1.38;;;;;;;;;;5115841;28;20055;-79
2023/05/01 13:58:33;;;;;;;1.80;1.52;;;;;;;;;;5115932;28;20031;-80
2023/05/01 14:00:58;;;;;;;2.72;1.50;;;;;;;;;;5116024;28;20492;-79
2023/05/01 14:03:23;;;;;;;1.98;1.50;;;;;;;;;;5134444;28;20366;-79
2023/05/01 14:05:49;;;;;;;2.60;1.67;;;;;;;;;;5134490;28;20023;-79
2023/05/01 14:08:15;;;;;;;3.40;1.70;;;;;;;;;;5099108;28;20031;-80
2023/05/01 14:10:40;;;;;;;2.22;1.50;;;;;;;;;;5115953;28;20023;-79
2023/05/01 14:13:06;;;;;;;3.42;1.50;;;;;;;;;;5117159;28;20031;-79
2023/05/01 14:15:36;;;;;;;1.92;1.60;;;;;;;;;;5117220;28;20031;-79
2023/05/01 14:18:05;;;;;;;3.42;1.58;;;;;;;;;;5119061;28;20371;-80
2023/05/01 14:20:31;;;;;;;2.90;1.67;;;;;;;;;;5134787;28;20171;-80
2023/05/01 14:22:57;;;;;;;2.72;1.60;;;;;;;;;;5116018;28;20525;-80
2023/05/01 14:25:28;;;;;;;2.92;1.50;;;;;;;;;;5134426;28;20079;-79
2023/05/01 14:27:55;;;;;;;2.40;1.60;;;;;;;;;;5134630;28;20054;-79
2023/05/01 14:30:28;;;;;;;3.00;1.92;;;;;;;;;;5098684;28;20027;-79
2023/05/01 14:32:54;;;;;;;2.72;1.80;;;;;;;;;;5135762;27;20027;-79
2023/05/01 14:35:21;;;;;;;3.15;1.60;;;;;;;;;;5119780;27;20156;-79
2023/05/01 14:37:47;;;;;;;2.90;1.52;;;;;;;;;;5119647;27;20019;-79
2023/05/01 14:40:13;;;;;;;4.70;1.67;;;;;;;;;;5120140;27;20027;-79
2023/05/01 14:42:42;;;;;;;2.20;1.45;;;;;;;;;;5120290;27;20034;-79
2023/05/01 14:45:16;;;;;;;2.45;1.80;;;;;;;;;;5120191;27;20034;-79